This is the latest recevied weather packets stored in our database for station/object F1ZRP-13. If no packets are shown the sender has not sent any weather packets the latest 10 day(s).
| Time | Temp. | Humidity | Pressure | Rain* | Wind** | Luminosity | Snow |
|---|---|---|---|---|---|---|---|
| 1777813342 | 15° C | 75% | 1015.6 hPa | - | - | - | - |
| 1777811400 | 18.89° C | 57% | 1015.4 hPa | - | - | - | - |
| 1777810468 | 19.44° C | 49% | 1015.2 hPa | - | - | - | - |
| 1777809531 | 20° C | 46% | 1015.1 hPa | - | - | - | - |
| 1777808636 | 20.56° C | 45% | 1015.1 hPa | - | - | - | - |
| 1777807750 | 20.56° C | 45% | 1015.1 hPa | - | - | - | - |
| 1777806958 | 20.56° C | 47% | 1015.1 hPa | - | - | - | - |
| 1777806294 | 20° C | 48% | 1015.1 hPa | - | - | - | - |
| 1777805426 | 19.44° C | 52% | 1015.1 hPa | - | - | - | - |
| 1777804525 | 18.89° C | 55% | 1015.3 hPa | - | - | - | - |
| 1777803393 | 17.22° C | 60% | 1015.5 hPa | - | - | - | - |
| 1777802469 | 17.78° C | 55% | 1015.4 hPa | - | - | - | - |
| 1777801678 | 17.22° C | 56% | 1015.4 hPa | - | - | - | - |
| 1777801014 | 17.22° C | 54% | 1015.4 hPa | - | - | - | - |
| 1777800137 | 18.89° C | 49% | 1015.4 hPa | - | - | - | - |
| 1777799118 | 18.33° C | 48% | 1015.3 hPa | - | - | - | - |
| 1777798260 | 18.33° C | 47% | 1015.3 hPa | - | - | - | - |
| 1777797426 | 18.89° C | 47% | 1015.3 hPa | - | - | - | - |
| 1777796383 | 18.33° C | 48% | 1015.3 hPa | - | - | - | - |
| 1777795342 | 17.78° C | 48% | 1015.2 hPa | - | - | - | - |
| 1777794163 | 17.22° C | 49% | 1015.1 hPa | - | - | - | - |
| 1777793289 | 16.67° C | 50% | 1015.1 hPa | - | - | - | - |
| 1777792368 | 16.67° C | 50% | 1015 hPa | - | - | - | - |
| 1777791422 | 16.11° C | 51% | 1015 hPa | - | - | - | - |
| 1777790804 | 16.11° C | 51% | 1014.9 hPa | - | - | - | - |
* Rain since midnight (hover to see other rain measurements)
** Current wind speed in m/s (hover to see current wind gust speed)